Time;durP1;ratioP1;P1;durP2;ratioP2;P2;SDS_P1;SDS_P2;PMS_P1;PMS_P2;Temp;Humidity;BMP_temperature;BMP_pressure;BME280_temperature;BME280_humidity;BME280_pressure;Samples;Min_cycle;Max_cycle;Signal;HPM_P1;HPM_P2
2023/05/06 00:01:13;;;;;;;3.17;2.45;;;16.60;65.70;;;;;;5035765;28;20381;-77
2023/05/06 00:03:39;;;;;;;3.50;2.70;;;16.60;65.80;;;;;;5018288;28;20040;-79
2023/05/06 00:06:07;;;;;;;3.60;2.70;;;16.50;65.80;;;;;;5034800;28;20030;-77
2023/05/06 00:08:34;;;;;;;3.72;2.83;;;16.50;65.80;;;;;;5035525;28;20099;-77
2023/05/06 00:11:00;;;;;;;3.33;2.70;;;16.50;65.80;;;;;;5018181;28;20033;-79
2023/05/06 00:13:25;;;;;;;3.50;2.75;;;16.50;65.80;;;;;;5034445;28;20042;-79
2023/05/06 00:15:51;;;;;;;3.33;2.58;;;16.40;66.50;;;;;;5034567;28;20041;-78
2023/05/06 00:18:17;;;;;;;3.63;2.70;;;16.40;65.90;;;;;;5034801;28;20036;-79
2023/05/06 00:20:43;;;;;;;3.33;2.70;;;16.40;65.90;;;;;;5034536;28;20529;-79
2023/05/06 00:23:08;;;;;;;3.90;2.88;;;16.40;66.00;;;;;;5002076;28;20442;-78
2023/05/06 00:25:34;;;;;;;3.83;2.65;;;16.30;65.90;;;;;;5017894;28;20021;-78
2023/05/06 00:28:00;;;;;;;3.42;2.42;;;16.40;66.00;;;;;;5034953;28;20034;-78
2023/05/06 00:30:26;;;;;;;4.07;3.20;;;16.30;66.00;;;;;;5034396;28;20414;-78
2023/05/06 00:32:53;;;;;;;3.90;2.90;;;16.30;66.00;;;;;;5018871;28;20060;-80
2023/05/06 00:35:19;;;;;;;3.90;2.97;;;16.30;66.10;;;;;;5017567;28;20529;-78
2023/05/06 00:37:49;;;;;;;3.90;2.80;;;16.30;66.10;;;;;;5001530;28;20386;-79
2023/05/06 00:40:16;;;;;;;3.40;2.75;;;16.20;66.10;;;;;;5034359;28;20073;-79
2023/05/06 00:42:41;;;;;;;3.47;2.85;;;16.20;66.20;;;;;;5001579;28;20038;-76
2023/05/06 00:45:08;;;;;;;4.18;3.20;;;16.20;66.20;;;;;;5018029;28;20064;-77
2023/05/06 00:47:33;;;;;;;3.92;2.80;;;16.20;66.30;;;;;;5034531;28;20029;-79
2023/05/06 00:49:59;;;;;;;4.32;2.88;;;16.20;66.30;;;;;;5034056;28;20482;-77
2023/05/06 00:52:25;;;;;;;3.50;2.60;;;16.20;66.30;;;;;;5000927;28;20071;-77
2023/05/06 00:54:51;;;;;;;3.60;2.60;;;16.10;66.30;;;;;;5033721;28;20038;-78
2023/05/06 00:57:17;;;;;;;3.63;2.88;;;16.10;66.30;;;;;;5017443;28;20088;-77
2023/05/06 00:59:43;;;;;;;4.53;3.05;;;16.10;66.30;;;;;;5033577;28;20034;-79
2023/05/06 01:02:08;;;;;;;4.13;3.13;;;16.10;66.40;;;;;;5033477;28;20139;-79
2023/05/06 01:04:35;;;;;;;3.85;2.80;;;16.10;66.40;;;;;;5017098;28;20029;-78
2023/05/06 01:07:15;;;;;;;3.97;3.03;;;16.10;66.40;;;;;;5000724;28;20033;-77
2023/05/06 01:09:50;;;;;;;4.10;2.95;;;16.10;66.40;;;;;;5033482;28;20104;-79
2023/05/06 01:12:44;;;;;;;3.95;3.03;;;16.00;66.40;;;;;;5033084;28;20049;-79
2023/05/06 01:15:15;;;;;;;4.07;3.13;;;16.00;66.50;;;;;;5033601;28;20037;-79
2023/05/06 01:17:45;;;;;;;3.88;2.97;;;16.00;66.40;;;;;;5034903;28;20035;-77
2023/05/06 01:20:11;;;;;;;3.63;2.95;;;16.00;66.50;;;;;;5032904;28;20045;-79
2023/05/06 01:22:38;;;;;;;5.10;3.40;;;16.00;66.50;;;;;;5033140;28;20035;-79
2023/05/06 01:25:05;;;;;;;4.40;3.35;;;16.00;66.70;;;;;;5032978;28;20026;-78
2023/05/06 01:27:31;;;;;;;4.28;3.53;;;15.90;66.60;;;;;;5016191;28;20022;-79
2023/05/06 01:29:58;;;;;;;4.20;3.17;;;15.90;66.60;;;;;;5032824;28;20133;-77
2023/05/06 01:32:45;;;;;;;4.32;3.40;;;15.90;66.50;;;;;;5032901;28;20061;-78
2023/05/06 01:35:15;;;;;;;4.28;3.30;;;15.90;66.60;;;;;;5034925;28;20052;-77
2023/05/06 01:38:10;;;;;;;4.72;3.63;;;15.90;66.60;;;;;;5016869;28;20049;-77
2023/05/06 01:40:40;;;;;;;4.10;3.20;;;15.90;66.70;;;;;;5023810;28;20471;-78
2023/05/06 01:43:07;;;;;;;4.70;3.40;;;15.90;66.60;;;;;;5049750;28;20038;-77
2023/05/06 01:45:35;;;;;;;4.18;3.22;;;15.90;66.70;;;;;;5033044;28;20084;-80
2023/05/06 01:48:03;;;;;;;4.97;3.63;;;15.80;66.70;;;;;;5032913;28;20386;-78
2023/05/06 01:50:30;;;;;;;4.50;3.72;;;15.80;66.60;;;;;;5033093;28;20040;-77
2023/05/06 01:53:02;;;;;;;4.57;3.63;;;15.80;66.70;;;;;;5017009;28;20037;-79
2023/05/06 01:55:28;;;;;;;4.68;3.70;;;15.80;66.80;;;;;;5032693;28;20032;-76
2023/05/06 01:57:57;;;;;;;5.20;3.92;;;15.80;66.80;;;;;;5015813;28;20025;-78
2023/05/06 02:00:24;;;;;;;4.88;3.88;;;15.80;66.80;;;;;;5033062;28;20025;-78
2023/05/06 02:02:50;;;;;;;5.30;3.92;;;15.80;66.90;;;;;;5037793;28;20072;-80
2023/05/06 02:05:16;;;;;;;5.45;4.00;;;15.80;66.90;;;;;;5038650;28;20152;-78
2023/05/06 02:07:46;;;;;;;5.60;3.97;;;15.70;66.90;;;;;;5037010;28;20040;-79
2023/05/06 02:10:12;;;;;;;5.00;4.00;;;15.70;66.90;;;;;;5032691;28;20482;-78
2023/05/06 02:12:42;;;;;;;5.30;4.15;;;15.80;67.00;;;;;;5032451;28;20164;-77
2023/05/06 02:15:09;;;;;;;5.22;3.85;;;15.70;66.90;;;;;;5032513;28;20505;-78
2023/05/06 02:17:36;;;;;;;5.63;4.10;;;15.70;67.00;;;;;;5015973;28;20065;-75
2023/05/06 02:20:02;;;;;;;5.47;4.28;;;15.70;67.00;;;;;;5031917;28;20049;-73
2023/05/06 02:22:28;;;;;;;4.93;3.92;;;15.60;67.00;;;;;;5033014;28;20033;-74
2023/05/06 02:24:54;;;;;;;5.63;4.28;;;15.70;67.00;;;;;;5031980;28;20478;-73
2023/05/06 02:27:20;;;;;;;5.25;4.13;;;15.70;67.10;;;;;;5015691;28;20021;-73
2023/05/06 02:29:46;;;;;;;5.40;4.07;;;15.70;67.80;;;;;;5016321;28;20033;-74
2023/05/06 02:32:11;;;;;;;5.07;4.07;;;15.60;67.10;;;;;;5033328;28;20103;-76
2023/05/06 02:34:37;;;;;;;5.70;4.43;;;15.60;67.10;;;;;;5049069;28;20040;-75
2023/05/06 02:37:03;;;;;;;5.80;4.63;;;15.60;67.10;;;;;;5015614;28;20439;-75
2023/05/06 02:39:29;;;;;;;5.75;4.57;;;15.60;67.20;;;;;;5032748;28;20088;-74
2023/05/06 02:41:54;;;;;;;6.00;4.72;;;15.60;67.20;;;;;;5003396;28;20064;-75
2023/05/06 02:44:20;;;;;;;6.45;4.72;;;15.50;67.20;;;;;;5037222;28;20036;-74
2023/05/06 02:46:46;;;;;;;5.85;4.72;;;15.50;67.30;;;;;;5036917;28;20121;-74
2023/05/06 02:49:12;;;;;;;5.63;4.57;;;15.50;67.30;;;;;;5003025;28;20434;-75
2023/05/06 02:51:37;;;;;;;5.75;4.50;;;15.50;67.30;;;;;;5037563;28;20032;-75
2023/05/06 02:54:03;;;;;;;5.82;4.82;;;15.50;67.30;;;;;;5019737;28;20033;-75
2023/05/06 02:56:30;;;;;;;5.60;4.75;;;15.50;67.40;;;;;;5036638;28;20034;-75
2023/05/06 02:58:55;;;;;;;5.78;4.38;;;15.40;67.30;;;;;;5037457;28;20041;-74
2023/05/06 03:01:21;;;;;;;6.60;4.90;;;15.40;67.30;;;;;;5019016;28;20482;-75
2023/05/06 03:03:47;;;;;;;6.95;4.80;;;15.40;67.30;;;;;;5035831;28;20064;-75
2023/05/06 03:06:12;;;;;;;5.93;4.88;;;15.40;67.40;;;;;;5019602;28;20030;-74
2023/05/06 03:08:38;;;;;;;5.50;4.35;;;15.40;67.40;;;;;;5035478;28;20545;-74
2023/05/06 03:11:05;;;;;;;6.88;5.15;;;15.30;67.30;;;;;;5019097;28;20056;-74
2023/05/06 03:13:31;;;;;;;5.90;4.78;;;15.30;67.40;;;;;;5035625;28;20025;-75
2023/05/06 03:15:57;;;;;;;6.43;5.30;;;15.30;67.40;;;;;;4987179;28;20041;-74
2023/05/06 03:18:23;;;;;;;6.50;5.25;;;15.30;67.50;;;;;;5003149;28;20026;-74
2023/05/06 03:20:49;;;;;;;5.85;4.97;;;15.30;67.50;;;;;;5036037;28;20041;-74
2023/05/06 03:23:15;;;;;;;6.97;5.00;;;15.30;67.50;;;;;;5035175;28;20041;-74
2023/05/06 03:25:42;;;;;;;6.18;4.80;;;15.30;67.50;;;;;;5018553;28;20124;-74
2023/05/06 03:28:07;;;;;;;5.72;4.50;;;15.30;67.50;;;;;;5035008;28;20068;-74
2023/05/06 03:30:35;;;;;;;6.57;5.28;;;15.20;67.40;;;;;;5035055;28;20025;-74
2023/05/06 03:33:04;;;;;;;6.28;5.07;;;15.20;67.40;;;;;;5035085;28;20064;-74
2023/05/06 03:35:31;;;;;;;6.22;4.55;;;15.20;67.50;;;;;;5034975;28;20512;-74
2023/05/06 03:37:59;;;;;;;6.85;5.22;;;15.20;67.50;;;;;;5035231;28;20031;-74
2023/05/06 03:40:31;;;;;;;6.35;5.07;;;15.10;67.50;;;;;;5035377;28;20056;-74
2023/05/06 03:42:57;;;;;;;6.13;4.88;;;15.10;67.50;;;;;;5034795;28;20029;-75
2023/05/06 03:45:23;;;;;;;5.72;4.60;;;15.10;67.50;;;;;;5034792;28;20087;-75
2023/05/06 03:47:49;;;;;;;6.35;4.97;;;15.10;67.60;;;;;;5034762;28;20052;-74
2023/05/06 03:50:15;;;;;;;6.13;4.85;;;15.10;67.60;;;;;;5018481;28;20038;-74
2023/05/06 03:52:41;;;;;;;6.13;4.63;;;15.00;67.60;;;;;;5034487;28;20120;-74
2023/05/06 03:55:08;;;;;;;6.85;5.50;;;15.00;67.60;;;;;;5034626;28;20440;-74
2023/05/06 03:57:35;;;;;;;6.10;4.85;;;15.00;67.60;;;;;;5035289;28;20026;-74
2023/05/06 04:00:01;;;;;;;5.47;4.68;;;15.00;67.60;;;;;;5034638;28;20044;-74
2023/05/06 04:02:28;;;;;;;6.55;5.22;;;15.00;67.60;;;;;;5018316;28;20441;-74
2023/05/06 04:04:56;;;;;;;6.25;5.00;;;14.90;67.60;;;;;;5035145;28;20033;-75
2023/05/06 04:07:22;;;;;;;6.13;5.15;;;14.90;67.70;;;;;;5017643;28;20056;-74
2023/05/06 04:09:49;;;;;;;6.97;5.80;;;14.90;67.70;;;;;;5018139;28;20057;-75
2023/05/06 04:12:16;;;;;;;6.53;5.13;;;14.90;67.70;;;;;;5033983;28;20029;-73
2023/05/06 04:14:41;;;;;;;6.40;5.13;;;14.90;67.70;;;;;;5017850;28;20034;-74
2023/05/06 04:17:08;;;;;;;6.53;5.10;;;14.90;67.70;;;;;;5018174;28;20043;-74
2023/05/06 04:19:33;;;;;;;5.88;4.78;;;14.90;67.70;;;;;;5017771;28;20124;-75
2023/05/06 04:21:59;;;;;;;6.38;5.00;;;14.80;67.70;;;;;;5034198;28;20029;-73
2023/05/06 04:24:27;;;;;;;6.57;4.97;;;14.80;67.70;;;;;;5017989;28;20173;-74
2023/05/06 04:26:53;;;;;;;6.03;4.88;;;14.80;67.80;;;;;;5033523;28;20033;-73
2023/05/06 04:29:19;;;;;;;6.45;5.05;;;14.80;67.80;;;;;;5033631;28;20560;-74
2023/05/06 04:32:11;;;;;;;6.13;4.70;;;14.80;67.80;;;;;;5034627;28;20077;-74
2023/05/06 04:34:37;;;;;;;6.47;4.90;;;14.70;67.80;;;;;;5017060;28;20041;-73
2023/05/06 04:37:05;;;;;;;6.20;5.07;;;14.70;67.80;;;;;;5017801;28;20052;-74
2023/05/06 04:39:45;;;;;;;5.40;4.53;;;14.70;68.00;;;;;;5019867;28;20050;-74
2023/05/06 04:42:13;;;;;;;5.93;4.55;;;14.60;67.90;;;;;;5034078;28;20059;-75
2023/05/06 04:44:45;;;;;;;6.07;4.88;;;14.60;67.90;;;;;;5018464;28;20033;-74
2023/05/06 04:47:11;;;;;;;5.70;4.43;;;14.60;68.00;;;;;;5033646;28;20041;-74
2023/05/06 04:49:39;;;;;;;6.03;4.72;;;14.60;68.00;;;;;;5033619;28;20029;-74
2023/05/06 04:52:06;;;;;;;6.47;5.10;;;14.60;68.00;;;;;;5033782;28;20026;-74
2023/05/06 04:54:32;;;;;;;6.53;4.68;;;14.60;68.00;;;;;;5033161;28;20042;-74
2023/05/06 04:56:58;;;;;;;5.47;4.22;;;14.60;68.00;;;;;;5033187;28;20032;-74
2023/05/06 04:59:25;;;;;;;5.45;4.38;;;14.60;68.10;;;;;;5016884;28;20048;-74
2023/05/06 05:01:51;;;;;;;5.95;4.57;;;14.50;68.00;;;;;;5033887;28;20378;-74
2023/05/06 05:04:16;;;;;;;6.18;4.68;;;14.50;68.00;;;;;;5033095;28;20033;-74
2023/05/06 05:06:42;;;;;;;5.55;4.50;;;14.60;68.10;;;;;;5033407;28;20061;-74
2023/05/06 05:09:09;;;;;;;5.82;4.22;;;14.50;68.10;;;;;;5017083;28;20036;-76
2023/05/06 05:11:37;;;;;;;4.80;3.80;;;14.60;68.70;;;;;;5033939;28;20029;-74
2023/05/06 05:14:03;;;;;;;5.30;4.10;;;14.50;68.00;;;;;;5033710;28;20113;-73
2023/05/06 05:16:30;;;;;;;4.80;3.75;;;14.50;68.00;;;;;;5033342;28;20060;-74
2023/05/06 05:18:55;;;;;;;4.68;3.70;;;14.50;68.10;;;;;;5033246;28;20036;-74
2023/05/06 05:21:26;;;;;;;4.97;3.95;;;14.50;68.10;;;;;;5017376;28;20041;-75
2023/05/06 05:23:53;;;;;;;4.60;3.60;;;14.50;68.10;;;;;;5033234;28;20152;-74
2023/05/06 05:26:19;;;;;;;4.57;3.85;;;14.50;68.10;;;;;;5016580;28;20100;-74
2023/05/06 05:28:46;;;;;;;4.75;3.95;;;14.50;68.10;;;;;;5033113;28;20059;-74
2023/05/06 05:31:12;;;;;;;5.03;4.10;;;14.50;68.10;;;;;;5016307;28;20029;-74
2023/05/06 05:33:38;;;;;;;4.88;3.80;;;14.50;68.10;;;;;;5015881;28;20095;-73
2023/05/06 05:36:07;;;;;;;4.20;3.47;;;14.50;68.10;;;;;;5016990;28;20042;-74
2023/05/06 05:38:33;;;;;;;4.90;3.85;;;14.50;68.20;;;;;;4984444;28;20116;-76
2023/05/06 05:40:59;;;;;;;4.57;3.58;;;14.50;68.20;;;;;;5016336;28;20176;-75
2023/05/06 05:43:25;;;;;;;4.47;3.83;;;14.60;68.40;;;;;;5049463;28;20033;-74
2023/05/06 05:45:52;;;;;;;4.72;3.95;;;14.50;68.40;;;;;;5032576;28;20044;-75
2023/05/06 05:48:18;;;;;;;4.50;3.72;;;14.50;68.40;;;;;;5032499;28;20033;-76
2023/05/06 05:50:45;;;;;;;4.82;3.88;;;14.50;68.40;;;;;;5016516;28;20399;-76
2023/05/06 05:53:12;;;;;;;4.65;3.60;;;14.60;68.50;;;;;;5016375;28;20033;-75
2023/05/06 05:55:38;;;;;;;5.40;4.22;;;14.60;68.40;;;;;;5032759;28;20037;-74
2023/05/06 05:58:04;;;;;;;4.22;3.33;;;14.50;68.40;;;;;;5032442;28;20080;-75
2023/05/06 06:00:31;;;;;;;4.68;3.83;;;14.60;68.40;;;;;;5016398;28;20176;-76
2023/05/06 06:03:04;;;;;;;4.35;3.50;;;14.60;68.50;;;;;;5034155;28;20462;-75
2023/05/06 06:05:30;;;;;;;4.97;3.97;;;14.60;68.40;;;;;;5032301;28;20055;-74
2023/05/06 06:07:57;;;;;;;5.28;4.38;;;14.60;68.40;;;;;;5032509;28;20178;-74
2023/05/06 06:10:24;;;;;;;4.63;3.88;;;14.60;68.50;;;;;;5016688;28;20033;-75
2023/05/06 06:12:50;;;;;;;4.80;3.97;;;14.60;68.40;;;;;;5015991;28;20124;-74
2023/05/06 06:15:20;;;;;;;4.95;4.03;;;14.60;68.40;;;;;;5016629;28;20477;-74
2023/05/06 06:17:47;;;;;;;4.82;3.97;;;14.70;68.60;;;;;;4999948;28;20502;-74
2023/05/06 06:20:13;;;;;;;5.15;4.15;;;14.70;68.60;;;;;;5015573;28;20108;-75
2023/05/06 06:22:39;;;;;;;5.03;4.10;;;14.70;68.60;;;;;;5031757;28;20164;-74
2023/05/06 06:25:06;;;;;;;5.03;3.88;;;14.70;68.60;;;;;;5015620;28;20080;-74
2023/05/06 06:27:35;;;;;;;5.30;4.15;;;14.70;68.70;;;;;;5015666;28;20044;-76
2023/05/06 06:30:02;;;;;;;5.07;4.10;;;14.80;68.80;;;;;;5032190;28;20119;-75
2023/05/06 06:32:30;;;;;;;4.95;3.92;;;14.80;68.70;;;;;;5031749;28;20116;-76
2023/05/06 06:34:56;;;;;;;5.20;4.25;;;14.80;68.70;;;;;;5015530;28;20041;-74
2023/05/06 06:37:22;;;;;;;4.50;3.83;;;14.90;68.70;;;;;;5048073;28;20033;-74
2023/05/06 06:39:48;;;;;;;4.78;3.80;;;14.80;68.70;;;;;;5031583;28;20099;-74
2023/05/06 06:42:13;;;;;;;4.40;3.70;;;14.80;68.70;;;;;;5032710;28;20095;-73
2023/05/06 06:44:48;;;;;;;5.15;3.90;;;14.90;68.70;;;;;;5016842;28;20029;-74
2023/05/06 06:47:14;;;;;;;4.75;3.70;;;14.90;68.60;;;;;;4998886;28;20037;-74
2023/05/06 06:49:39;;;;;;;4.40;3.70;;;14.90;68.60;;;;;;5031799;28;20029;-75
2023/05/06 06:52:05;;;;;;;4.47;3.55;;;15.00;68.70;;;;;;5015845;28;20064;-75
2023/05/06 06:54:31;;;;;;;5.55;4.20;;;15.00;68.60;;;;;;4999330;28;20030;-75
2023/05/06 06:56:57;;;;;;;4.35;3.72;;;15.00;68.60;;;;;;5015984;28;20033;-75
2023/05/06 06:59:23;;;;;;;4.68;3.75;;;15.00;68.50;;;;;;5031824;28;20480;-76
2023/05/06 07:01:48;;;;;;;5.32;4.22;;;15.10;68.60;;;;;;5031681;28;20053;-75
2023/05/06 07:04:14;;;;;;;4.88;3.97;;;15.10;68.60;;;;;;5031446;28;20029;-77
2023/05/06 07:06:40;;;;;;;4.70;3.63;;;15.10;68.60;;;;;;5032824;28;20061;-76
2023/05/06 07:09:05;;;;;;;4.22;3.63;;;15.10;68.60;;;;;;5033035;28;20022;-75
2023/05/06 07:11:31;;;;;;;5.00;4.07;;;15.20;68.60;;;;;;5031462;28;20048;-75
2023/05/06 07:13:57;;;;;;;5.15;4.18;;;15.20;68.60;;;;;;5015713;28;20148;-75
2023/05/06 07:16:23;;;;;;;4.78;3.88;;;15.20;68.60;;;;;;4998854;28;20068;-74
2023/05/06 07:18:49;;;;;;;5.38;4.47;;;15.20;68.60;;;;;;5031389;28;20057;-75
2023/05/06 07:21:15;;;;;;;4.75;3.80;;;15.30;68.60;;;;;;5015107;28;20469;-76
2023/05/06 07:23:41;;;;;;;5.03;3.97;;;15.30;68.60;;;;;;5014941;28;20110;-76
2023/05/06 07:26:06;;;;;;;4.47;3.80;;;15.30;68.60;;;;;;5032151;28;20040;-75
2023/05/06 07:28:32;;;;;;;4.50;3.80;;;15.40;68.70;;;;;;5018591;28;20402;-77
2023/05/06 07:30:58;;;;;;;4.78;3.97;;;15.40;68.60;;;;;;5018898;28;20025;-75
2023/05/06 07:33:23;;;;;;;4.45;3.72;;;15.40;68.60;;;;;;5034992;28;20493;-74
2023/05/06 07:35:51;;;;;;;4.68;3.88;;;15.50;68.60;;;;;;5034991;28;20061;-74
2023/05/06 07:38:19;;;;;;;4.18;3.45;;;15.50;68.60;;;;;;5051552;28;20056;-74
2023/05/06 07:40:45;;;;;;;5.10;4.00;;;15.50;68.60;;;;;;5034562;28;20057;-74
2023/05/06 07:43:11;;;;;;;4.88;3.95;;;15.50;68.60;;;;;;5034817;28;20087;-74
2023/05/06 07:45:36;;;;;;;5.05;3.80;;;15.50;68.50;;;;;;5034669;28;20037;-74
2023/05/06 07:48:02;;;;;;;5.40;4.07;;;15.60;68.50;;;;;;5034829;28;20029;-74
2023/05/06 07:50:28;;;;;;;4.47;3.65;;;15.60;68.50;;;;;;5018048;28;20033;-74
2023/05/06 07:52:54;;;;;;;5.47;4.15;;;15.70;68.50;;;;;;5034343;28;20037;-74
2023/05/06 07:55:20;;;;;;;5.45;4.38;;;15.80;68.50;;;;;;5034701;28;20060;-74
2023/05/06 07:57:46;;;;;;;4.85;3.92;;;15.80;68.50;;;;;;5035666;28;20032;-73
2023/05/06 08:00:12;;;;;;;6.13;3.95;;;15.80;68.40;;;;;;5018107;28;20029;-73
2023/05/06 08:02:43;;;;;;;5.03;4.03;;;15.90;68.40;;;;;;5002980;28;20427;-75
2023/05/06 08:05:12;;;;;;;5.30;3.85;;;15.90;68.40;;;;;;5034458;28;20037;-75
2023/05/06 08:07:43;;;;;;;5.05;4.00;;;15.90;68.40;;;;;;5036936;28;20036;-75
2023/05/06 08:10:09;;;;;;;5.38;4.25;;;16.00;68.40;;;;;;5034368;28;20036;-75
2023/05/06 08:12:35;;;;;;;5.45;4.15;;;16.00;68.40;;;;;;5018158;28;20029;-74
2023/05/06 08:15:02;;;;;;;5.05;4.20;;;16.10;68.30;;;;;;5035500;28;20084;-74
2023/05/06 08:17:27;;;;;;;6.50;4.85;;;16.10;68.40;;;;;;5034251;28;20029;-74
2023/05/06 08:19:54;;;;;;;5.28;4.28;;;16.20;68.40;;;;;;5017812;28;20036;-73
2023/05/06 08:22:20;;;;;;;5.72;4.57;;;16.20;68.30;;;;;;5017863;28;20036;-74
2023/05/06 08:24:45;;;;;;;5.63;4.60;;;16.30;68.30;;;;;;5034146;28;20030;-75
2023/05/06 08:27:11;;;;;;;6.30;4.43;;;16.30;68.30;;;;;;5017861;28;20026;-74
2023/05/06 08:29:37;;;;;;;5.43;4.63;;;16.40;68.30;;;;;;5034415;28;20068;-74
2023/05/06 08:32:03;;;;;;;5.28;4.10;;;16.40;68.20;;;;;;5033636;28;20026;-74
2023/05/06 08:34:28;;;;;;;6.22;4.60;;;16.50;68.20;;;;;;5001107;28;20029;-73
2023/05/06 08:36:54;;;;;;;5.22;4.20;;;16.50;68.20;;;;;;5034144;28;20033;-74
2023/05/06 08:39:20;;;;;;;5.45;4.70;;;16.60;68.20;;;;;;5002166;28;20070;-74
2023/05/06 08:41:53;;;;;;;5.00;4.40;;;16.60;68.20;;;;;;5035333;28;20053;-74
2023/05/06 08:44:21;;;;;;;5.80;4.75;;;16.70;68.30;;;;;;5033976;28;20043;-74
2023/05/06 08:46:47;;;;;;;6.03;4.47;;;16.80;68.30;;;;;;5033618;28;20473;-78
2023/05/06 08:49:13;;;;;;;7.20;5.60;;;16.80;68.20;;;;;;5034350;28;20034;-78
2023/05/06 08:51:45;;;;;;;7.75;6.10;;;16.90;68.90;;;;;;5018009;28;20029;-78
2023/05/06 08:54:11;;;;;;;9.45;7.15;;;16.90;69.20;;;;;;5035276;28;20040;-78
2023/05/06 08:56:41;;;;;;;9.45;8.10;;;17.00;69.30;;;;;;5034610;28;20040;-78
2023/05/06 08:59:08;;;;;;;10.05;8.20;;;17.10;69.60;;;;;;5033408;28;20037;-79
2023/05/06 09:01:35;;;;;;;9.77;7.60;;;17.20;69.90;;;;;;5033343;28;20029;-78
2023/05/06 09:04:06;;;;;;;9.63;7.63;;;17.30;70.00;;;;;;5017166;28;20102;-78
2023/05/06 09:06:33;;;;;;;8.77;7.82;;;17.40;70.10;;;;;;5034774;28;20048;-78
2023/05/06 09:08:59;;;;;;;9.98;8.40;;;17.50;70.10;;;;;;5017061;28;20478;-77
2023/05/06 09:11:27;;;;;;;10.15;8.23;;;17.60;70.20;;;;;;5034597;28;20025;-79
2023/05/06 09:14:12;;;;;;;10.32;7.85;;;17.70;70.40;;;;;;5032960;28;20032;-78
2023/05/06 09:16:41;;;;;;;10.15;7.30;;;17.80;70.60;;;;;;5033238;28;20056;-78
2023/05/06 09:19:07;;;;;;;9.48;7.82;;;17.90;70.30;;;;;;5033167;28;20083;-79
2023/05/06 09:21:41;;;;;;;11.15;8.15;;;18.00;70.30;;;;;;5032733;28;20025;-78
2023/05/06 09:24:08;;;;;;;9.85;7.25;;;18.10;70.30;;;;;;5033901;28;20083;-78
2023/05/06 09:26:36;;;;;;;8.23;7.07;;;18.10;70.00;;;;;;5017350;28;20021;-79
2023/05/06 09:29:04;;;;;;;8.88;6.88;;;18.20;70.00;;;;;;5033884;28;20040;-79
2023/05/06 09:31:30;;;;;;;8.40;6.90;;;18.40;70.00;;;;;;5032603;28;20033;-79
2023/05/06 09:34:11;;;;;;;8.85;6.32;;;18.50;70.00;;;;;;5074131;27;20403;-78
2023/05/06 09:36:38;;;;;;;7.40;6.57;;;18.60;69.90;;;;;;5062815;28;20029;-81
2023/05/06 09:39:04;;;;;;;9.45;7.18;;;18.70;69.70;;;;;;5074554;28;20035;-79
2023/05/06 09:41:30;;;;;;;8.23;6.50;;;18.90;69.60;;;;;;5073647;28;20016;-79
2023/05/06 09:43:57;;;;;;;8.40;6.45;;;19.00;69.50;;;;;;5070156;28;20039;-78
2023/05/06 09:46:26;;;;;;;9.20;6.55;;;19.10;69.30;;;;;;5048514;28;20329;-78
2023/05/06 09:48:54;;;;;;;8.75;6.95;;;19.10;69.20;;;;;;5050621;28;20040;-78
2023/05/06 09:51:20;;;;;;;6.97;6.10;;;19.20;69.20;;;;;;5074688;28;20100;-80
2023/05/06 09:53:46;;;;;;;7.72;6.28;;;19.40;69.10;;;;;;5070182;28;20040;-80
2023/05/06 09:56:14;;;;;;;8.85;5.93;;;19.50;69.00;;;;;;5048017;28;20029;-80
2023/05/06 09:58:40;;;;;;;7.55;5.68;;;19.60;69.00;;;;;;5085940;28;20029;-78
2023/05/06 10:01:07;;;;;;;8.75;5.75;;;19.70;68.80;;;;;;5039198;28;20090;-78
2023/05/06 10:03:34;;;;;;;6.95;5.18;;;19.80;68.60;;;;;;5052535;28;20508;-79
2023/05/06 10:06:01;;;;;;;7.78;5.68;;;19.90;68.50;;;;;;5067444;28;20053;-79
2023/05/06 10:08:28;;;;;;;6.97;5.22;;;19.90;68.20;;;;;;5065333;28;20016;-79
2023/05/06 10:10:55;;;;;;;6.93;5.60;;;20.00;68.10;;;;;;5031158;28;20025;-79
2023/05/06 10:13:25;;;;;;;6.50;5.35;;;20.10;68.00;;;;;;5048439;28;20558;-79
2023/05/06 10:15:52;;;;;;;6.93;5.22;;;20.20;68.10;;;;;;5055389;28;20477;-80
2023/05/06 10:18:20;;;;;;;6.65;5.43;;;20.30;68.00;;;;;;5049526;28;20381;-77
2023/05/06 10:20:47;;;;;;;6.85;5.13;;;20.40;68.00;;;;;;5075843;28;20021;-76
2023/05/06 10:23:31;;;;;;;6.68;5.13;;;20.50;67.90;;;;;;5073564;28;20028;-76
2023/05/06 10:26:20;;;;;;;6.57;4.68;;;20.50;67.80;;;;;;5068345;28;20453;-76
2023/05/06 10:28:49;;;;;;;6.25;4.53;;;20.60;67.70;;;;;;5069534;28;20374;-76
2023/05/06 10:31:15;;;;;;;6.00;4.53;;;20.70;67.60;;;;;;5069082;28;20111;-78
2023/05/06 10:33:46;;;;;;;5.65;4.38;;;20.80;67.50;;;;;;5073591;28;20074;-75
2023/05/06 10:36:27;;;;;;;5.70;3.97;;;20.90;67.50;;;;;;5049503;28;20585;-77
2023/05/06 10:38:55;;;;;;;5.63;3.95;;;21.00;67.50;;;;;;5059439;28;20025;-76
2023/05/06 10:41:22;;;;;;;5.35;4.00;;;21.10;67.30;;;;;;5062148;28;20079;-76
2023/05/06 10:43:55;;;;;;;5.78;4.00;;;21.10;67.30;;;;;;5062747;28;20063;-76
2023/05/06 10:46:22;;;;;;;5.63;4.30;;;21.20;67.10;;;;;;5056667;28;20505;-76
2023/05/06 10:49:12;;;;;;;6.50;4.03;;;21.30;67.00;;;;;;5053692;28;20020;-78
2023/05/06 10:51:45;;;;;;;4.70;3.47;;;21.40;67.00;;;;;;5033770;28;20068;-79
2023/05/06 10:54:17;;;;;;;4.60;3.45;;;21.50;66.80;;;;;;5051697;28;20036;-77
2023/05/06 10:57:06;;;;;;;5.00;3.85;;;21.60;66.80;;;;;;5051948;28;20518;-78
2023/05/06 10:59:32;;;;;;;3.50;2.92;;;21.70;66.80;;;;;;5024393;28;20426;-80
2023/05/06 11:02:04;;;;;;;4.57;3.45;;;21.80;66.50;;;;;;5058225;28;20044;-77
2023/05/06 11:04:30;;;;;;;5.22;3.45;;;21.80;66.50;;;;;;5049907;28;20026;-78
2023/05/06 11:07:13;;;;;;;4.25;3.08;;;21.90;66.30;;;;;;5032149;28;20053;-77
2023/05/06 11:09:57;;;;;;;4.53;3.28;;;22.00;66.30;;;;;;5037308;28;20037;-78
2023/05/06 11:12:42;;;;;;;5.10;3.27;;;22.00;66.30;;;;;;5054368;28;20088;-78
2023/05/06 11:15:38;;;;;;;4.50;3.35;;;22.10;66.30;;;;;;5056310;28;20064;-81
2023/05/06 11:18:35;;;;;;;4.43;3.20;;;22.20;66.40;;;;;;5055986;28;20099;-78
2023/05/06 11:21:02;;;;;;;4.25;3.10;;;22.30;66.50;;;;;;5035640;28;20048;-77
2023/05/06 11:23:57;;;;;;;4.38;2.78;;;22.30;66.30;;;;;;5035078;28;20138;-77
2023/05/06 11:26:23;;;;;;;3.92;3.00;;;22.40;66.40;;;;;;5037933;28;20466;-77
2023/05/06 11:28:50;;;;;;;3.55;2.67;;;22.50;66.40;;;;;;5018003;28;20045;-78
2023/05/06 11:31:16;;;;;;;3.78;2.80;;;22.50;66.40;;;;;;5047796;28;20508;-76
2023/05/06 11:33:47;;;;;;;3.75;2.55;;;22.60;66.50;;;;;;5048240;28;20041;-78
2023/05/06 11:36:18;;;;;;;3.85;2.47;;;22.60;66.50;;;;;;5014561;28;20025;-77
2023/05/06 11:38:48;;;;;;;3.92;2.88;;;22.70;66.40;;;;;;5042804;28;20032;-77
2023/05/06 11:41:15;;;;;;;2.90;2.40;;;22.80;66.50;;;;;;5042493;28;20092;-75
2023/05/06 11:43:52;;;;;;;3.58;2.58;;;22.80;66.30;;;;;;5044737;28;20037;-77
2023/05/06 11:46:22;;;;;;;3.25;2.28;;;22.90;66.50;;;;;;5047938;28;20021;-75
2023/05/06 11:48:48;;;;;;;4.55;2.90;;;23.00;66.60;;;;;;5048140;28;20068;-75
2023/05/06 11:51:13;;;;;;;2.45;2.05;;;23.10;66.80;;;;;;5045664;28;20476;-75
2023/05/06 11:53:39;;;;;;;3.55;2.58;;;23.10;66.50;;;;;;5035092;28;20037;-75
2023/05/06 11:56:06;;;;;;;3.03;2.38;;;23.20;66.50;;;;;;5048392;28;20171;-75
2023/05/06 11:58:32;;;;;;;3.40;2.65;;;23.20;66.50;;;;;;5031561;28;20036;-75
2023/05/06 12:01:03;;;;;;;3.15;2.28;;;23.30;66.40;;;;;;5033256;28;20116;-75
2023/05/06 12:03:30;;;;;;;2.80;2.20;;;23.30;66.40;;;;;;5046928;28;20033;-75
2023/05/06 12:05:56;;;;;;;2.85;2.08;;;23.40;66.40;;;;;;5051570;28;20021;-76
2023/05/06 12:08:24;;;;;;;2.35;1.95;;;23.50;66.40;;;;;;5049668;28;20056;-74
2023/05/06 12:10:59;;;;;;;3.03;2.10;;;23.50;66.30;;;;;;5042931;28;20021;-75
2023/05/06 12:13:26;;;;;;;2.58;1.95;;;23.60;66.40;;;;;;5047606;28;20029;-75
2023/05/06 12:15:57;;;;;;;2.70;1.70;;;23.60;66.40;;;;;;5045428;28;20416;-75
2023/05/06 12:18:24;;;;;;;2.78;2.10;;;23.70;66.40;;;;;;5054472;28;21008;-74
2023/05/06 12:20:53;;;;;;;2.42;1.95;;;23.80;66.40;;;;;;5050392;28;20026;-75
2023/05/06 12:23:20;;;;;;;3.00;2.15;;;23.80;66.20;;;;;;5040176;28;20029;-74
2023/05/06 12:26:03;;;;;;;2.80;2.20;;;23.90;66.00;;;;;;5055564;28;20020;-74
2023/05/06 12:28:30;;;;;;;2.95;1.88;;;23.90;65.90;;;;;;5050519;28;20512;-75
2023/05/06 12:30:56;;;;;;;2.97;1.98;;;24.00;65.70;;;;;;5028462;28;20025;-75
2023/05/06 12:33:22;;;;;;;2.33;1.92;;;24.00;65.50;;;;;;5045629;28;20067;-75
2023/05/06 12:35:50;;;;;;;2.33;1.75;;;24.10;65.50;;;;;;5024817;28;20389;-77
2023/05/06 12:38:16;;;;;;;2.53;1.77;;;24.10;65.60;;;;;;5046157;28;20051;-75
2023/05/06 12:40:51;;;;;;;4.00;1.90;;;24.20;65.60;;;;;;5041569;28;20226;-75
2023/05/06 12:43:17;;;;;;;2.28;1.70;;;24.20;65.40;;;;;;5075211;28;20091;-75
2023/05/06 12:45:44;;;;;;;3.05;2.28;;;24.30;65.30;;;;;;5046363;28;20024;-74
2023/05/06 12:48:15;;;;;;;2.30;1.63;;;24.30;65.20;;;;;;5032295;28;20437;-75
2023/05/06 12:50:44;;;;;;;1.70;1.60;;;24.40;65.20;;;;;;5033251;28;20075;-76